createdAt,value
2022-08-03T00:01:39.991Z,22.00
2022-08-03T00:04:10.348Z,22.00
2022-08-03T00:06:38.256Z,22.00
2022-08-03T00:09:06.320Z,22.00
2022-08-03T00:11:33.703Z,22.00
2022-08-03T00:14:01.183Z,22.10
2022-08-03T00:16:28.072Z,22.10
2022-08-03T00:18:54.922Z,22.20
2022-08-03T00:21:21.694Z,22.00
2022-08-03T00:23:51.538Z,22.00
2022-08-03T00:26:21.431Z,21.90
2022-08-03T00:28:49.537Z,21.90
2022-08-03T00:31:16.757Z,21.90
2022-08-03T00:33:59.174Z,21.90
2022-08-03T00:36:28.487Z,21.90
2022-08-03T00:38:57.351Z,22.00
2022-08-03T00:41:24.361Z,22.00
2022-08-03T00:43:51.229Z,21.90
2022-08-03T00:46:21.773Z,22.00
2022-08-03T00:48:53.180Z,22.00
2022-08-03T00:51:22.200Z,22.00
2022-08-03T00:53:50.487Z,22.00
2022-08-03T00:56:18.657Z,22.00
2022-08-03T00:58:47.335Z,22.00
2022-08-03T01:01:16.689Z,21.90
2022-08-03T01:03:44.576Z,21.90
2022-08-03T01:06:28.463Z,21.90
2022-08-03T01:09:25.881Z,21.90
2022-08-03T01:12:37.873Z,21.90
2022-08-03T01:15:46.681Z,21.90
2022-08-03T01:18:42.352Z,21.90
2022-08-03T01:21:40.517Z,21.90
2022-08-03T01:24:47.991Z,21.90
2022-08-03T01:27:40.906Z,21.80
2022-08-03T01:30:12.972Z,21.90
2022-08-03T01:33:03.124Z,21.80
2022-08-03T01:35:38.349Z,21.60
2022-08-03T01:38:18.610Z,21.60
2022-08-03T01:40:51.384Z,21.60
2022-08-03T01:43:55.177Z,21.60
2022-08-03T01:46:12.915Z,21.70
2022-08-03T01:48:44.842Z,21.70
2022-08-03T01:51:16.655Z,21.60
2022-08-03T01:53:44.471Z,21.60
2022-08-03T01:56:13.847Z,21.50
2022-08-03T01:58:44.801Z,21.50
2022-08-03T02:01:14.958Z,21.60
2022-08-03T02:04:00.253Z,21.60
2022-08-03T02:07:00.517Z,21.50
2022-08-03T02:09:23.563Z,21.50
2022-08-03T02:11:55.188Z,21.40
2022-08-03T02:14:23.843Z,21.40
2022-08-03T02:16:51.760Z,21.20
2022-08-03T02:19:19.621Z,21.10
2022-08-03T02:21:56.747Z,21.10
2022-08-03T02:24:30.659Z,21.10
2022-08-03T02:26:59.547Z,21.10
2022-08-03T02:29:39.928Z,21.10
2022-08-03T02:32:14.360Z,21.10
2022-08-03T02:34:47.357Z,21.00
2022-08-03T02:37:19.308Z,21.00
2022-08-03T02:39:49.237Z,20.90
2022-08-03T02:42:20.640Z,20.90
2022-08-03T02:44:53.966Z,20.90
2022-08-03T02:47:22.216Z,20.90
2022-08-03T02:49:52.308Z,20.90
2022-08-03T02:52:28.706Z,20.90
2022-08-03T02:55:00.854Z,20.90
2022-08-03T02:57:31.149Z,20.90
2022-08-03T03:00:00.118Z,20.80
2022-08-03T03:02:29.963Z,21.00
2022-08-03T03:05:52.134Z,21.00
2022-08-03T03:07:52.277Z,20.90
2022-08-03T03:10:25.874Z,20.80
2022-08-03T03:12:58.062Z,20.90
2022-08-03T03:15:27.719Z,20.70
2022-08-03T03:17:56.214Z,20.70
2022-08-03T03:20:29.498Z,20.80
2022-08-03T03:23:01.015Z,20.70
2022-08-03T03:25:38.201Z,20.80
2022-08-03T03:28:06.279Z,20.70
2022-08-03T03:30:36.382Z,20.60
2022-08-03T03:33:04.638Z,20.60
2022-08-03T03:35:38.846Z,20.70
2022-08-03T03:38:07.481Z,20.70
2022-08-03T03:40:38.206Z,20.60
2022-08-03T03:43:10.839Z,20.70
2022-08-03T03:45:41.188Z,20.60
2022-08-03T03:48:08.617Z,20.60
2022-08-03T03:50:43.033Z,20.70
2022-08-03T03:53:12.492Z,20.60
2022-08-03T03:56:02.338Z,20.50
2022-08-03T03:58:28.356Z,20.60
2022-08-03T04:00:55.295Z,20.50
2022-08-03T04:03:23.926Z,20.50
2022-08-03T04:06:09.479Z,20.50
2022-08-03T04:08:54.814Z,20.60
2022-08-03T04:12:04.237Z,20.50
2022-08-03T04:14:36.064Z,20.50
2022-08-03T04:17:21.335Z,20.40
2022-08-03T04:19:54.841Z,20.40
2022-08-03T04:22:29.502Z,20.40
2022-08-03T04:25:04.950Z,20.40
2022-08-03T04:27:39.223Z,20.40
2022-08-03T04:30:09.143Z,20.40
2022-08-03T04:32:44.114Z,20.30
2022-08-03T04:35:15.660Z,20.30
2022-08-03T04:37:49.393Z,20.30
2022-08-03T04:40:36.812Z,20.30
2022-08-03T04:43:06.228Z,20.30
2022-08-03T04:45:35.668Z,20.30
2022-08-03T04:48:04.841Z,20.20
2022-08-03T04:50:32.313Z,20.20
2022-08-03T04:52:59.920Z,20.20
2022-08-03T04:55:47.240Z,20.20
2022-08-03T04:58:14.102Z,20.20
2022-08-03T05:00:40.895Z,20.30
2022-08-03T05:03:20.489Z,20.20
2022-08-03T05:05:53.543Z,20.10
2022-08-03T05:08:29.522Z,20.20
2022-08-03T05:10:59.295Z,20.20
2022-08-03T05:13:28.676Z,20.20
2022-08-03T05:15:55.660Z,20.10
2022-08-03T05:18:22.569Z,20.10
2022-08-03T05:20:49.520Z,20.10
2022-08-03T05:23:16.473Z,20.10
2022-08-03T05:25:46.106Z,20.10
2022-08-03T05:28:16.845Z,20.10
2022-08-03T05:30:44.851Z,20.10
2022-08-03T05:33:11.856Z,20.00
2022-08-03T05:35:56.195Z,20.00
2022-08-03T05:38:35.113Z,20.10
2022-08-03T05:41:22.723Z,20.10
2022-08-03T05:43:56.565Z,20.10
2022-08-03T05:46:23.639Z,20.10
2022-08-03T05:48:50.882Z,20.10
2022-08-03T05:51:18.088Z,20.20
2022-08-03T05:53:45.660Z,20.00
2022-08-03T05:56:14.610Z,20.00
2022-08-03T05:58:47.613Z,20.00
2022-08-03T06:01:17.130Z,20.00
2022-08-03T06:03:46.072Z,20.00
2022-08-03T06:06:13.644Z,19.90
2022-08-03T06:08:42.210Z,20.00
2022-08-03T06:11:09.620Z,20.00
2022-08-03T06:13:36.656Z,20.00
2022-08-03T06:16:04.332Z,20.10
2022-08-03T06:18:31.310Z,20.10
2022-08-03T06:20:58.182Z,20.10
2022-08-03T06:23:53.116Z,20.20
2022-08-03T06:26:22.596Z,20.20
2022-08-03T06:28:52.526Z,20.30
2022-08-03T06:31:23.967Z,20.40
2022-08-03T06:34:32.435Z,20.30
2022-08-03T06:36:39.730Z,20.40
2022-08-03T06:39:08.564Z,20.50
2022-08-03T06:41:37.466Z,20.50
2022-08-03T06:44:05.730Z,20.50
2022-08-03T06:46:32.468Z,20.50
2022-08-03T06:48:59.231Z,20.60
2022-08-03T06:52:04.223Z,20.60
2022-08-03T06:54:12.795Z,20.60
2022-08-03T06:56:39.685Z,20.80
2022-08-03T06:59:06.426Z,20.70
2022-08-03T07:01:33.267Z,20.80
2022-08-03T07:04:01.118Z,20.80
2022-08-03T07:06:27.934Z,20.80
2022-08-03T07:08:59.277Z,20.80
2022-08-03T07:11:28.533Z,20.90
2022-08-03T07:13:56.383Z,20.90
2022-08-03T07:16:23.554Z,20.90
2022-08-03T07:18:50.358Z,21.00
2022-08-03T07:21:17.230Z,21.00
2022-08-03T07:23:44.072Z,21.00
2022-08-03T07:26:12.010Z,21.00
2022-08-03T07:28:38.853Z,21.00
2022-08-03T07:31:05.655Z,21.00
2022-08-03T07:33:32.396Z,21.10
2022-08-03T07:35:59.243Z,21.20
2022-08-03T07:38:26.059Z,21.30
2022-08-03T07:40:54.260Z,21.30
2022-08-03T07:43:26.467Z,21.40
2022-08-03T07:45:53.235Z,21.30
2022-08-03T07:48:20.028Z,21.40
2022-08-03T07:50:47.353Z,21.40
2022-08-03T07:53:14.351Z,21.40
2022-08-03T07:55:41.192Z,21.50
2022-08-03T07:58:12.553Z,21.50
2022-08-03T08:00:39.697Z,21.60
2022-08-03T08:03:06.705Z,21.60
2022-08-03T08:05:34.372Z,21.60
2022-08-03T08:08:03.184Z,21.70
2022-08-03T08:10:30.475Z,21.80
2022-08-03T08:12:57.608Z,22.00
2022-08-03T08:15:25.120Z,22.30
2022-08-03T08:17:58.610Z,22.50
2022-08-03T08:20:31.427Z,22.80
2022-08-03T08:23:03.433Z,23.00
2022-08-03T08:25:35.033Z,23.30
2022-08-03T08:28:31.873Z,23.30
2022-08-03T08:30:51.865Z,23.30
2022-08-03T08:33:23.353Z,23.40
2022-08-03T08:35:53.410Z,23.50
2022-08-03T08:38:20.763Z,23.70
2022-08-03T08:40:50.116Z,23.70
2022-08-03T08:43:16.884Z,23.90
2022-08-03T08:45:45.628Z,24.20
2022-08-03T08:48:14.714Z,24.30
2022-08-03T08:50:42.287Z,24.30
2022-08-03T08:53:18.333Z,24.30
2022-08-03T08:55:58.949Z,24.60
2022-08-03T08:58:34.544Z,24.70
2022-08-03T09:01:01.610Z,25.00
2022-08-03T09:03:30.090Z,25.40
2022-08-03T09:06:04.192Z,25.50
2022-08-03T09:08:33.082Z,25.70
2022-08-03T09:11:00.421Z,26.00
2022-08-03T09:13:27.366Z,26.10
2022-08-03T09:16:18.496Z,26.20
2022-08-03T09:18:54.654Z,26.40
2022-08-03T09:21:36.497Z,26.80
2022-08-03T09:24:10.512Z,26.80
2022-08-03T09:26:40.217Z,26.70
2022-08-03T09:29:14.845Z,26.70
2022-08-03T09:31:44.983Z,27.20
2022-08-03T09:34:16.040Z,27.10
2022-08-03T09:36:47.539Z,27.50
2022-08-03T09:39:41.078Z,27.40
2022-08-03T09:42:11.723Z,27.30
2022-08-03T09:44:51.259Z,27.60
2022-08-03T09:47:33.576Z,27.40
2022-08-03T09:50:05.384Z,27.40
2022-08-03T09:52:50.235Z,27.40
2022-08-03T09:56:33.220Z,27.40
2022-08-03T09:58:11.713Z,27.50
2022-08-03T10:01:04.073Z,27.70
2022-08-03T10:04:02.915Z,27.80
2022-08-03T10:06:28.785Z,27.70
2022-08-03T10:09:16.584Z,28.00
2022-08-03T10:11:46.710Z,28.00
2022-08-03T10:14:20.137Z,28.00
2022-08-03T10:16:56.108Z,28.10
2022-08-03T10:19:23.083Z,28.20
2022-08-03T10:21:57.049Z,28.20
2022-08-03T10:24:31.010Z,27.90
2022-08-03T10:27:13.243Z,28.10
2022-08-03T10:29:47.380Z,28.20
2022-08-03T10:32:24.156Z,28.10
2022-08-03T10:35:00.005Z,28.10
2022-08-03T10:37:32.036Z,28.40
2022-08-03T10:40:01.293Z,28.10
2022-08-03T10:42:31.387Z,28.40
2022-08-03T10:45:14.765Z,28.30
2022-08-03T10:47:42.108Z,28.30
2022-08-03T10:50:12.204Z,28.20
2022-08-03T10:52:56.214Z,28.20
2022-08-03T10:55:52.188Z,28.20
2022-08-03T10:58:57.643Z,28.20
2022-08-03T11:01:58.918Z,28.60
2022-08-03T11:04:29.375Z,28.70
2022-08-03T11:07:25.192Z,28.60
2022-08-03T11:09:55.443Z,28.70
2022-08-03T11:12:32.197Z,28.80
2022-08-03T11:15:09.724Z,28.90
2022-08-03T11:17:46.881Z,29.10
2022-08-03T11:20:56.541Z,29.30
2022-08-03T11:24:05.371Z,29.50
2022-08-03T11:26:33.865Z,29.40
2022-08-03T11:29:29.289Z,29.40
2022-08-03T11:31:56.587Z,29.40
2022-08-03T11:34:24.578Z,29.30
2022-08-03T11:37:28.846Z,29.10
2022-08-03T11:39:58.398Z,29.20
2022-08-03T11:42:26.572Z,29.20
2022-08-03T11:44:57.208Z,29.20
2022-08-03T11:47:27.986Z,29.40
2022-08-03T11:49:59.371Z,29.30
2022-08-03T11:52:33.848Z,29.30
2022-08-03T11:55:01.091Z,29.40
2022-08-03T11:58:58.315Z,29.40
2022-08-03T12:00:22.057Z,29.50
2022-08-03T12:02:59.608Z,29.60
2022-08-03T12:05:51.373Z,29.60
2022-08-03T12:08:33.977Z,29.60
2022-08-03T12:11:06.800Z,29.60
2022-08-03T12:14:27.077Z,29.70
2022-08-03T12:16:38.065Z,29.60
2022-08-03T12:19:09.020Z,29.70
2022-08-03T12:22:05.854Z,29.80
2022-08-03T12:24:46.859Z,29.60
2022-08-03T12:27:29.635Z,29.80
2022-08-03T12:29:59.495Z,29.70
2022-08-03T12:32:30.885Z,29.90
2022-08-03T12:35:01.634Z,30.20
2022-08-03T12:37:29.605Z,30.20
2022-08-03T12:40:04.997Z,30.20
2022-08-03T12:42:38.755Z,30.10
2022-08-03T12:45:26.123Z,30.20
2022-08-03T12:48:02.420Z,30.10
2022-08-03T12:50:37.185Z,29.90
2022-08-03T12:53:08.982Z,30.00
2022-08-03T12:55:57.356Z,29.90
2022-08-03T12:58:35.771Z,29.80
2022-08-03T13:01:10.061Z,29.70
2022-08-03T13:03:50.293Z,29.80
2022-08-03T13:06:25.242Z,29.90
2022-08-03T13:09:06.950Z,30.10
2022-08-03T13:11:57.332Z,30.10
2022-08-03T13:14:21.525Z,30.20
2022-08-03T13:16:49.209Z,30.20
2022-08-03T13:19:18.567Z,30.20
2022-08-03T13:22:01.977Z,30.30
2022-08-03T13:24:38.819Z,30.20
2022-08-03T13:27:58.859Z,30.20
2022-08-03T13:29:55.162Z,30.20
2022-08-03T13:32:24.107Z,30.10
2022-08-03T13:34:53.391Z,30.10
2022-08-03T13:37:23.033Z,30.10
2022-08-03T13:39:58.787Z,30.10
2022-08-03T13:42:29.551Z,30.20
2022-08-03T13:44:56.550Z,30.20
2022-08-03T13:47:23.415Z,30.30
2022-08-03T13:50:00.093Z,30.40
2022-08-03T13:52:36.589Z,30.40
2022-08-03T13:55:06.475Z,30.10
2022-08-03T13:58:03.675Z,30.30
2022-08-03T14:00:27.150Z,30.50
2022-08-03T14:03:06.510Z,30.70
2022-08-03T14:05:40.152Z,30.80
2022-08-03T14:08:09.000Z,30.70
2022-08-03T14:10:44.683Z,30.70
2022-08-03T14:13:17.903Z,30.70
2022-08-03T14:15:50.271Z,30.60
2022-08-03T14:18:28.404Z,30.40
2022-08-03T14:21:06.684Z,30.50
2022-08-03T14:23:35.789Z,30.40
2022-08-03T14:26:02.606Z,30.60
2022-08-03T14:28:29.421Z,30.70
2022-08-03T14:30:56.489Z,30.90
2022-08-03T14:33:24.511Z,31.00
2022-08-03T14:35:52.322Z,31.00
2022-08-03T14:38:19.224Z,31.00
2022-08-03T14:40:46.864Z,31.00
2022-08-03T14:43:14.898Z,31.10
2022-08-03T14:45:42.613Z,31.00
2022-08-03T14:50:28.572Z,30.90
2022-08-03T14:50:56.983Z,30.90
2022-08-03T14:53:29.471Z,30.70
2022-08-03T14:55:56.500Z,30.60
2022-08-03T14:58:25.933Z,30.60
2022-08-03T15:00:55.392Z,30.50
2022-08-03T15:03:27.228Z,30.30
2022-08-03T15:05:56.500Z,30.50
2022-08-03T15:08:25.577Z,30.70
2022-08-03T15:10:54.481Z,30.90
2022-08-03T15:13:22.156Z,30.90
2022-08-03T15:15:49.858Z,31.00
2022-08-03T15:18:17.001Z,30.80
2022-08-03T15:20:46.025Z,30.70
2022-08-03T15:23:16.067Z,30.80
2022-08-03T15:26:28.461Z,31.10
2022-08-03T15:28:32.917Z,30.90
2022-08-03T15:31:00.661Z,30.90
2022-08-03T15:33:28.583Z,30.80
2022-08-03T15:35:56.530Z,30.70
2022-08-03T15:38:26.925Z,30.60
2022-08-03T15:40:55.011Z,30.60
2022-08-03T15:43:23.454Z,30.40
2022-08-03T15:46:18.995Z,30.30
2022-08-03T15:48:40.387Z,30.50
2022-08-03T15:51:11.275Z,30.50
2022-08-03T15:53:38.395Z,30.50
2022-08-03T15:56:18.703Z,30.60
2022-08-03T15:59:10.514Z,30.50
2022-08-03T16:01:32.985Z,30.70
2022-08-03T16:04:02.912Z,30.90
2022-08-03T16:06:34.908Z,30.80
2022-08-03T16:09:23.591Z,30.80
2022-08-03T16:11:53.442Z,30.80
2022-08-03T16:14:32.629Z,30.70
2022-08-03T16:17:03.405Z,30.70
2022-08-03T16:19:30.186Z,30.80
2022-08-03T16:21:57.087Z,31.00
2022-08-03T16:24:27.912Z,30.90
2022-08-03T16:26:55.775Z,30.90
2022-08-03T16:29:23.842Z,30.80
2022-08-03T16:31:52.547Z,30.80
2022-08-03T16:34:21.026Z,31.00
2022-08-03T16:36:51.160Z,30.70
2022-08-03T16:39:18.128Z,30.60
2022-08-03T16:41:53.923Z,30.70
2022-08-03T16:44:30.042Z,30.50
2022-08-03T16:46:57.680Z,30.40
2022-08-03T16:49:53.859Z,30.30
2022-08-03T16:52:13.014Z,30.20
2022-08-03T16:54:40.223Z,30.20
2022-08-03T16:57:07.511Z,30.30
2022-08-03T16:59:37.128Z,30.30
2022-08-03T17:02:10.119Z,30.50
2022-08-03T17:04:40.006Z,30.50
2022-08-03T17:07:08.855Z,30.50
2022-08-03T17:09:38.638Z,30.40
2022-08-03T17:12:07.558Z,30.30
2022-08-03T17:14:42.289Z,30.00
2022-08-03T17:17:47.620Z,30.10
2022-08-03T17:20:29.998Z,29.90
2022-08-03T17:23:34.728Z,30.10
2022-08-03T17:26:04.827Z,29.90
2022-08-03T17:28:58.276Z,29.90
2022-08-03T17:31:31.740Z,29.90
2022-08-03T17:34:02.089Z,29.90
2022-08-03T17:37:02.267Z,29.90
2022-08-03T17:39:30.873Z,29.90
2022-08-03T17:42:31.631Z,30.00
2022-08-03T17:45:03.474Z,30.10
2022-08-03T17:47:41.935Z,29.80
2022-08-03T17:50:25.379Z,29.70
2022-08-03T17:53:07.780Z,29.70
2022-08-03T17:55:59.041Z,29.80
2022-08-03T17:59:12.536Z,29.90
2022-08-03T18:02:19.897Z,29.70
2022-08-03T18:05:16.234Z,29.60
2022-08-03T18:08:02.599Z,29.50
2022-08-03T18:10:36.351Z,29.50
2022-08-03T18:13:25.402Z,29.30
2022-08-03T18:16:04.808Z,29.20
2022-08-03T18:18:39.124Z,29.20
2022-08-03T18:21:17.211Z,29.10
2022-08-03T18:23:46.086Z,28.90
2022-08-03T18:26:20.981Z,28.70
2022-08-03T18:28:54.133Z,28.70
2022-08-03T18:32:00.176Z,28.60
2022-08-03T18:34:33.166Z,28.60
2022-08-03T18:37:04.314Z,28.40
2022-08-03T18:42:27.936Z,28.10
2022-08-03T18:44:56.263Z,28.00
2022-08-03T18:47:51.705Z,28.00
2022-08-03T18:50:34.760Z,28.10
2022-08-03T18:53:15.508Z,28.20
2022-08-03T18:56:23.250Z,28.10
2022-08-03T18:59:16.803Z,28.10
2022-08-03T19:02:06.919Z,28.00
2022-08-03T19:04:47.620Z,28.10
2022-08-03T19:07:25.005Z,28.10
2022-08-03T19:10:00.324Z,28.10
2022-08-03T19:12:51.839Z,28.10
2022-08-03T19:15:36.676Z,28.20
2022-08-03T19:18:11.125Z,28.20
2022-08-03T19:20:38.337Z,28.00
2022-08-03T19:23:08.652Z,27.90
2022-08-03T19:25:40.567Z,27.80
2022-08-03T19:28:12.903Z,27.50
2022-08-03T19:30:40.641Z,27.40
2022-08-03T19:33:16.045Z,27.20
2022-08-03T19:35:55.355Z,27.30
2022-08-03T19:38:28.348Z,27.40
2022-08-03T19:41:04.208Z,27.50
2022-08-03T19:43:49.582Z,27.50
2022-08-03T19:46:30.309Z,27.60
2022-08-03T19:49:16.890Z,27.70
2022-08-03T19:52:01.026Z,27.80
2022-08-03T19:54:53.266Z,27.80
2022-08-03T19:57:25.901Z,27.50
2022-08-03T19:59:56.336Z,27.50
2022-08-03T20:02:26.034Z,27.50
2022-08-03T20:04:59.605Z,27.60
2022-08-03T20:07:31.421Z,27.60
2022-08-03T20:10:01.429Z,27.60
2022-08-03T20:12:34.406Z,27.60
2022-08-03T20:15:09.263Z,27.50
2022-08-03T20:17:56.837Z,27.50
2022-08-03T20:20:34.627Z,27.50
2022-08-03T20:23:11.058Z,27.50
2022-08-03T20:25:58.296Z,27.40
2022-08-03T20:32:17.818Z,27.30
2022-08-03T20:35:24.976Z,27.30
2022-08-03T20:37:52.496Z,27.30
2022-08-03T20:40:19.683Z,27.20
2022-08-03T20:42:46.785Z,27.00
2022-08-03T20:45:58.975Z,27.10
2022-08-03T20:48:01.950Z,27.10
2022-08-03T20:50:36.743Z,27.10
2022-08-03T20:53:04.818Z,27.10
2022-08-03T20:55:48.283Z,27.00
2022-08-03T20:58:24.693Z,26.90
2022-08-03T21:00:57.580Z,27.00
2022-08-03T21:03:24.733Z,27.00
2022-08-03T21:06:15.085Z,26.90
2022-08-03T21:08:58.795Z,26.90
2022-08-03T21:11:41.465Z,26.90
2022-08-03T21:12:58.867Z,28.30
2022-08-03T21:13:06.983Z,27.40
2022-08-03T21:14:23.709Z,26.70
2022-08-03T21:16:52.373Z,26.70
2022-08-03T21:19:23.088Z,26.60
2022-08-03T21:21:51.888Z,26.50
2022-08-03T21:24:25.874Z,26.50
2022-08-03T21:26:57.556Z,26.50
2022-08-03T21:29:25.977Z,26.40
2022-08-03T21:31:52.978Z,26.30
2022-08-03T21:34:21.178Z,26.20
2022-08-03T21:36:48.951Z,26.20
2022-08-03T21:39:16.070Z,26.30
2022-08-03T21:41:43.167Z,26.30
2022-08-03T21:44:10.177Z,26.20
2022-08-03T21:46:42.866Z,26.20
2022-08-03T21:50:02.630Z,26.20
2022-08-03T21:52:06.418Z,26.20
2022-08-03T21:54:39.837Z,26.00
2022-08-03T21:57:23.285Z,26.00
2022-08-03T22:00:00.311Z,26.10
2022-08-03T22:02:32.042Z,26.00
2022-08-03T22:04:59.563Z,25.90
2022-08-03T22:07:29.456Z,25.90
2022-08-03T22:09:58.878Z,25.90
2022-08-03T22:12:30.571Z,25.80
2022-08-03T22:15:02.012Z,25.80
2022-08-03T22:17:55.297Z,25.80
2022-08-03T22:20:23.580Z,25.80
2022-08-03T22:22:56.616Z,25.80
2022-08-03T22:25:36.681Z,25.80
2022-08-03T22:28:09.881Z,25.70
2022-08-03T22:30:39.426Z,25.60
2022-08-03T22:33:11.363Z,25.50
2022-08-03T22:35:51.448Z,25.60
2022-08-03T22:38:19.330Z,25.50
2022-08-03T22:40:50.852Z,25.50
2022-08-03T22:43:24.882Z,25.40
2022-08-03T22:46:09.616Z,25.30
2022-08-03T22:48:40.841Z,25.30
2022-08-03T22:51:08.916Z,25.30
2022-08-03T22:53:36.649Z,25.20
2022-08-03T22:56:04.358Z,25.30
2022-08-03T22:58:31.135Z,25.20
2022-08-03T23:01:11.432Z,25.20
2022-08-03T23:04:00.508Z,25.20
2022-08-03T23:06:37.933Z,25.10
2022-08-03T23:09:12.511Z,25.00
2022-08-03T23:11:45.768Z,25.00
2022-08-03T23:14:18.448Z,24.90
2022-08-03T23:16:47.763Z,24.90
2022-08-03T23:19:24.923Z,24.90
2022-08-03T23:22:02.381Z,24.80
2022-08-03T23:24:37.974Z,24.80
2022-08-03T23:27:07.160Z,24.80
2022-08-03T23:29:42.174Z,24.80
2022-08-03T23:32:10.524Z,24.90
2022-08-03T23:34:59.051Z,24.80
2022-08-03T23:37:29.848Z,24.80
2022-08-03T23:39:59.217Z,24.80
2022-08-03T23:42:27.502Z,24.70
2022-08-03T23:44:57.235Z,24.60
2022-08-03T23:47:46.742Z,24.40
2022-08-03T23:50:14.701Z,24.50
2022-08-03T23:53:14.025Z,24.40
2022-08-03T23:56:09.940Z,24.40
2022-08-03T23:59:11.540Z,24.40
